createdAt,value
2022-12-11T00:02:03.002Z,54.3
2022-12-11T00:07:21.490Z,53.9
2022-12-11T00:12:40.005Z,54.7
2022-12-11T00:17:58.453Z,55
2022-12-11T00:23:16.968Z,54.2
2022-12-11T00:28:35.503Z,54.7
2022-12-11T00:33:53.973Z,55.6
2022-12-11T00:39:12.727Z,55.6
2022-12-11T00:44:31.244Z,54.8
2022-12-11T00:49:50.974Z,55.8
2022-12-11T00:55:11.034Z,55.9
2022-12-11T01:00:29.630Z,55.1
2022-12-11T01:05:48.104Z,55.2
2022-12-11T01:11:06.863Z,55
2022-12-11T01:16:25.770Z,55
2022-12-11T01:21:44.040Z,54.9
2022-12-11T01:27:02.311Z,56
2022-12-11T01:32:20.903Z,55.8
2022-12-11T01:37:39.520Z,56.4
2022-12-11T01:42:58.273Z,56.3
2022-12-11T01:48:17.090Z,56.3
2022-12-11T01:53:35.568Z,56.4
2022-12-11T01:58:54.071Z,56.8
2022-12-11T02:04:12.020Z,56.4
2022-12-11T02:09:30.768Z,56.2
2022-12-11T02:14:48.968Z,56.1
2022-12-11T02:20:08.474Z,56
2022-12-11T02:25:27.221Z,56.5
2022-12-11T02:30:45.691Z,56
2022-12-11T02:36:03.958Z,56.5
2022-12-11T02:41:22.453Z,56.4
2022-12-11T02:46:40.349Z,56.5
2022-12-11T02:51:58.343Z,55.9
2022-12-11T02:57:16.801Z,56.5
2022-12-11T03:02:35.147Z,56.3
2022-12-11T03:07:54.151Z,56.5
2022-12-11T03:13:12.175Z,55.7
2022-12-11T03:18:30.960Z,56.7
2022-12-11T03:23:49.208Z,55.7
2022-12-11T03:29:07.928Z,56.7
2022-12-11T03:34:26.155Z,56.1
2022-12-11T03:39:44.905Z,56.5
2022-12-11T03:45:03.719Z,55.3
2022-12-11T03:50:22.488Z,55.7
2022-12-11T03:55:40.737Z,55.7
2022-12-11T04:00:58.921Z,55.6
2022-12-11T04:06:17.304Z,56.3
2022-12-11T04:11:35.873Z,55.6
2022-12-11T04:16:54.437Z,56.2
2022-12-11T04:22:12.931Z,56.5
2022-12-11T04:27:31.449Z,55.5
2022-12-11T04:32:49.632Z,56.3
2022-12-11T04:38:08.119Z,56.5
2022-12-11T04:43:26.371Z,56.1
2022-12-11T04:48:44.813Z,55.5
2022-12-11T04:53:47.954Z,56
2022-12-11T04:59:06.202Z,55.9
2022-12-11T05:04:24.395Z,55.4
2022-12-11T05:09:42.905Z,55.4
2022-12-11T05:15:01.403Z,55.4
2022-12-11T05:20:19.875Z,55.2
2022-12-11T05:25:38.634Z,55.9
2022-12-11T05:30:57.374Z,55.9
2022-12-11T05:36:15.576Z,55.2
2022-12-11T05:41:34.067Z,55.7
2022-12-11T05:46:52.921Z,55.4
2022-12-11T05:52:11.192Z,55.2
2022-12-11T05:57:29.950Z,55.7
2022-12-11T06:02:49.053Z,55.2
2022-12-11T06:08:07.873Z,55.8
2022-12-11T06:13:26.053Z,55.2
2022-12-11T06:18:44.578Z,55
2022-12-11T06:24:03.043Z,55.2
2022-12-11T06:29:21.518Z,55.4
2022-12-11T06:34:40.089Z,55.3
2022-12-11T06:39:58.299Z,55.7
2022-12-11T06:45:16.212Z,54.9
2022-12-11T06:50:34.479Z,55.1
2022-12-11T06:55:52.938Z,55.5
2022-12-11T07:01:11.338Z,54.7
2022-12-11T07:06:29.280Z,55.1
2022-12-11T07:11:47.474Z,54.6
2022-12-11T07:17:06.217Z,54.7
2022-12-11T07:22:08.842Z,54.3
2022-12-11T07:27:27.040Z,55
2022-12-11T07:32:45.449Z,55.1
2022-12-11T07:38:04.008Z,55.6
2022-12-11T07:43:22.464Z,55.7
2022-12-11T07:48:40.940Z,55.2
2022-12-11T07:53:58.893Z,56
2022-12-11T07:59:17.081Z,55.7
2022-12-11T08:04:35.586Z,54.9
2022-12-11T08:09:38.196Z,54.9
2022-12-11T08:14:56.658Z,54.8
2022-12-11T08:20:15.456Z,55.2
2022-12-11T08:25:33.697Z,55.2
2022-12-11T08:30:52.273Z,54.6
2022-12-11T08:36:10.747Z,47.1
2022-12-11T08:41:29.821Z,46.4
2022-12-11T08:46:48.608Z,45.6
2022-12-11T08:52:07.068Z,47
2022-12-11T08:57:10.285Z,48.7
2022-12-11T09:02:28.277Z,49.7
2022-12-11T09:07:46.318Z,51.6
2022-12-11T09:13:04.561Z,51.6
2022-12-11T09:18:23.009Z,51.1
2022-12-11T09:23:41.495Z,50.3
2022-12-11T09:28:59.998Z,51.7
2022-12-11T09:34:02.550Z,51.9
2022-12-11T09:39:20.475Z,51.4
2022-12-11T09:44:23.662Z,52.2
2022-12-11T09:49:41.830Z,51.6
2022-12-11T09:55:00.588Z,51.6
2022-12-11T10:00:19.148Z,51.6
2022-12-11T10:05:37.690Z,52.2
2022-12-11T10:10:56.466Z,52.1
2022-12-11T10:16:14.941Z,52.7
2022-12-11T10:21:33.419Z,51.9
2022-12-11T10:26:51.320Z,52.3
2022-12-11T10:32:15.313Z,52.1
2022-12-11T10:37:33.477Z,48.2
2022-12-11T10:42:51.684Z,49.1
2022-12-11T10:48:10.521Z,49.7
2022-12-11T10:53:28.965Z,49.1
2022-12-11T10:58:47.144Z,46.6
2022-12-11T11:04:05.079Z,46.8
2022-12-11T11:09:23.246Z,44.1
2022-12-11T11:14:41.733Z,42.7
2022-12-11T11:20:00.248Z,44.1
2022-12-11T11:25:18.417Z,46.2
2022-12-11T11:30:37.189Z,46.6
2022-12-11T11:35:55.476Z,47.1
2022-12-11T11:41:15.737Z,47.8
2022-12-11T11:46:34.487Z,47.9
2022-12-11T11:51:53.183Z,49.2
2022-12-11T11:57:11.633Z,48.7
2022-12-11T12:02:29.986Z,48.9
2022-12-11T12:07:48.356Z,48.9
2022-12-11T12:13:50.248Z,48.8
2022-12-11T12:19:09.232Z,49
2022-12-11T12:24:27.625Z,48.7
2022-12-11T12:29:46.144Z,48.8
2022-12-11T12:35:04.611Z,47.2
2022-12-11T12:40:27.869Z,47.4
2022-12-11T12:45:46.472Z,49.1
2022-12-11T12:51:04.698Z,49.9
2022-12-11T12:56:23.212Z,49.9
2022-12-11T13:01:47.703Z,51
2022-12-11T13:07:06.176Z,51.2
2022-12-11T13:12:24.875Z,50.9
2022-12-11T13:17:43.101Z,51.1
2022-12-11T13:23:07.855Z,51.2
2022-12-11T13:28:26.373Z,52
2022-12-11T13:33:44.278Z,51.9
2022-12-11T13:39:02.740Z,51.8
2022-12-11T13:44:21.578Z,52.4
2022-12-11T13:49:39.838Z,51.9
2022-12-11T13:54:58.308Z,52.2
2022-12-11T14:00:18.207Z,52.4
2022-12-11T14:05:36.399Z,52.2
2022-12-11T14:10:54.873Z,52.2
2022-12-11T14:16:13.169Z,52.3
2022-12-11T14:21:31.667Z,52.3
2022-12-11T14:26:49.860Z,52.7
2022-12-11T14:32:08.468Z,52.5
2022-12-11T14:37:26.637Z,52.5
2022-12-11T14:42:45.120Z,52.8
2022-12-11T14:48:03.611Z,52.7
2022-12-11T14:53:21.813Z,52
2022-12-11T14:58:40.265Z,43.2
2022-12-11T15:03:58.459Z,40.6
2022-12-11T15:09:17.178Z,43.5
2022-12-11T15:14:35.961Z,45.4
2022-12-11T15:19:54.759Z,46.5
2022-12-11T15:25:13.492Z,47.5
2022-12-11T15:30:32.279Z,46.7
2022-12-11T15:35:50.514Z,48
2022-12-11T15:41:08.774Z,47.6
2022-12-11T15:46:27.241Z,48.7
2022-12-11T15:51:45.555Z,49
2022-12-11T15:57:03.867Z,49.8
2022-12-11T16:02:22.261Z,49.8
2022-12-11T16:07:41.028Z,49.4
2022-12-11T16:13:05.842Z,49.9
2022-12-11T16:18:24.323Z,50
2022-12-11T16:23:42.868Z,49.7
2022-12-11T16:29:01.037Z,50
2022-12-11T16:34:19.793Z,49.9
2022-12-11T16:39:38.019Z,50.9
2022-12-11T16:44:56.473Z,51.4
2022-12-11T16:50:15.221Z,51.5
2022-12-11T16:55:34.009Z,52
2022-12-11T17:00:52.210Z,52.5
2022-12-11T17:06:10.680Z,52.5
2022-12-11T17:11:29.441Z,53.2
2022-12-11T17:16:52.926Z,53.7
2022-12-11T17:22:11.156Z,54.2
2022-12-11T17:27:29.322Z,54.1
2022-12-11T17:32:48.165Z,54.2
2022-12-11T17:38:12.923Z,54.8
2022-12-11T17:43:31.681Z,54.8
2022-12-11T17:48:49.882Z,53.8
2022-12-11T17:54:13.986Z,54.1
2022-12-11T17:59:32.458Z,54.7
2022-12-11T18:04:51.221Z,54.1
2022-12-11T18:09:53.511Z,54.1
2022-12-11T18:15:12.458Z,54.1
2022-12-11T18:20:30.597Z,53.9
2022-12-11T18:25:49.057Z,55.7
2022-12-11T18:31:07.940Z,55.2
2022-12-11T18:36:26.264Z,54.7
2022-12-11T18:42:32.120Z,55.7
2022-12-11T18:47:51.190Z,56.3
2022-12-11T18:53:09.421Z,55.6
2022-12-11T18:58:27.621Z,55.7
2022-12-11T19:03:46.078Z,55.6
2022-12-11T19:09:04.264Z,54.6
2022-12-11T19:14:22.158Z,56
2022-12-11T19:19:40.390Z,55.3
2022-12-11T19:24:58.898Z,55.6
2022-12-11T19:30:17.625Z,55
2022-12-11T19:35:35.819Z,54.3
2022-12-11T19:40:54.392Z,55.1
2022-12-11T19:46:13.080Z,55.3
2022-12-11T19:51:31.890Z,54.3
2022-12-11T19:56:49.962Z,55.3
2022-12-11T20:02:08.715Z,55
2022-12-11T20:07:31.736Z,55.1
2022-12-11T20:12:50.242Z,54.8
2022-12-11T20:18:08.542Z,55.2
2022-12-11T20:23:27.444Z,54.8
2022-12-11T20:28:45.935Z,54.5
2022-12-11T20:34:03.902Z,54.6
2022-12-11T20:39:22.362Z,54.2
2022-12-11T20:44:49.869Z,54.3
2022-12-11T20:50:08.110Z,53.9
2022-12-11T20:55:26.835Z,54.5
2022-12-11T21:00:29.746Z,54.3
2022-12-11T21:05:53.664Z,54.2
2022-12-11T21:11:11.835Z,54.2
2022-12-11T21:16:30.434Z,54.8
2022-12-11T21:21:48.678Z,55.3
2022-12-11T21:27:12.741Z,54.2
2022-12-11T21:32:30.994Z,54.3
2022-12-11T21:37:49.239Z,54.1
2022-12-11T21:43:07.679Z,54
2022-12-11T21:48:26.159Z,54.7
2022-12-11T21:53:44.667Z,54.5
2022-12-11T21:59:02.917Z,54.8
2022-12-11T22:04:21.125Z,54.8
2022-12-11T22:09:39.611Z,54.3
2022-12-11T22:14:58.121Z,54
2022-12-11T22:20:16.028Z,53.8
2022-12-11T22:25:34.307Z,54.2
2022-12-11T22:30:52.618Z,54.8
2022-12-11T22:36:11.087Z,54.8
2022-12-11T22:41:29.826Z,54.7
2022-12-11T22:47:03.254Z,54.2
2022-12-11T22:52:21.447Z,54.9
2022-12-11T22:57:39.918Z,54.8
2022-12-11T23:02:58.685Z,54.1
2022-12-11T23:08:17.495Z,54.7
2022-12-11T23:13:35.730Z,54.8
2022-12-11T23:18:53.966Z,54.1
2022-12-11T23:24:12.151Z,54.4
2022-12-11T23:29:30.974Z,54
2022-12-11T23:34:49.430Z,54
2022-12-11T23:40:07.655Z,53.9
2022-12-11T23:45:25.908Z,53.9
2022-12-11T23:50:44.085Z,54.4
2022-12-11T23:56:02.293Z,53.8
